Time;durP1;ratioP1;P1;durP2;ratioP2;P2;SDS_P1;SDS_P2;PMS_P1;PMS_P2;Temp;Humidity;BMP_temperature;BMP_pressure;BME280_temperature;BME280_humidity;BME280_pressure;Samples;Min_cycle;Max_cycle;Signal;HPM_P1;HPM_P2
2022/08/23 00:02:24;;;;;;;;;;;;;;;23.34;28.06;100927.88;5045284;28;19925;-79
2022/08/23 00:04:52;;;;;;;;;;;;;;;23.29;28.08;100927.69;5041409;28;20021;-79
2022/08/23 00:07:37;;;;;;;;;;;;;;;23.26;28.01;100935.63;5046326;28;20265;-79
2022/08/23 00:10:07;;;;;;;;;;;;;;;23.22;28.32;100929.63;5050184;28;19955;-79
2022/08/23 00:12:35;;;;;;;;;;;;;;;23.20;28.48;100930.91;5042621;28;20395;-79
2022/08/23 00:15:05;;;;;;;;;;;;;;;23.17;28.44;100928.53;5052043;28;19924;-79
2022/08/23 00:17:34;;;;;;;;;;;;;;;23.14;28.50;100920.56;5065372;28;20016;-80
2022/08/23 00:20:04;;;;;;;;;;;;;;;23.12;28.16;100918.00;5048763;28;19932;-79
2022/08/23 00:22:32;;;;;;;;;;;;;;;23.09;28.81;100923.13;5049003;28;19932;-79
2022/08/23 00:25:00;;;;;;;;;;;;;;;23.06;28.64;100916.06;5046984;28;20283;-79
2022/08/23 00:27:28;;;;;;;;;;;;;;;23.03;28.82;100911.78;5045390;28;19924;-79
2022/08/23 00:29:57;;;;;;;;;;;;;;;23.00;28.66;100914.97;5064110;28;20367;-79
2022/08/23 00:32:28;;;;;;;;;;;;;;;22.97;29.20;100906.19;5043795;28;19925;-80
2022/08/23 00:34:57;;;;;;;;;;;;;;;22.91;29.00;100901.47;5050972;28;19986;-80
2022/08/23 00:37:26;;;;;;;;;;;;;;;22.87;29.07;100898.25;5052556;28;19924;-79
2022/08/23 00:39:54;;;;;;;;;;;;;;;22.83;29.22;100898.91;5047310;28;19929;-80
2022/08/23 00:48:02;;;;;;;;;;;;;;;22.64;29.58;100898.66;5046454;28;19925;-77
2022/08/23 00:50:32;;;;;;;;;;;;;;;22.60;29.73;100904.88;5067502;28;19932;-77
2022/08/23 00:53:02;;;;;;;;;;;;;;;22.54;29.26;100901.00;5065472;28;19925;-77
2022/08/23 00:55:30;;;;;;;;;;;;;;;22.50;29.30;100902.50;5065971;28;19940;-77
2022/08/23 00:57:58;;;;;;;;;;;;;;;22.47;29.42;100913.19;5046008;28;20334;-78
2022/08/23 01:00:28;;;;;;;;;;;;;;;22.43;29.63;100904.38;5048898;28;19924;-78
2022/08/23 01:02:56;;;;;;;;;;;;;;;22.40;29.83;100906.75;5050390;28;20260;-78
2022/08/23 01:05:30;;;;;;;;;;;;;;;22.37;29.50;100921.09;5049470;28;20023;-78
2022/08/23 01:07:59;;;;;;;;;;;;;;;22.32;29.79;100924.53;5051026;28;19928;-78
2022/08/23 01:10:29;;;;;;;;;;;;;;;22.28;30.17;100926.00;5038522;28;19925;-78
2022/08/23 01:13:02;;;;;;;;;;;;;;;22.25;30.11;100929.25;5045909;28;19936;-78
2022/08/23 01:15:32;;;;;;;;;;;;;;;22.21;30.10;100920.41;5043898;28;19933;-78
2022/08/23 01:18:02;;;;;;;;;;;;;;;22.18;30.23;100923.63;5039898;28;19955;-78
2022/08/23 01:20:35;;;;;;;;;;;;;;;22.14;30.27;100922.31;5045381;28;19924;-78
2022/08/23 01:23:07;;;;;;;;;;;;;;;22.11;30.11;100924.66;5049532;28;19929;-78
2022/08/23 01:25:37;;;;;;;;;;;;;;;22.08;30.45;100934.31;5051064;28;19932;-78
2022/08/23 01:28:05;;;;;;;;;;;;;;;22.04;30.22;100933.00;5046029;28;19939;-78
2022/08/23 01:30:34;;;;;;;;;;;;;;;22.02;30.84;100934.25;5049934;28;19932;-78
2022/08/23 01:33:05;;;;;;;;;;;;;;;21.99;30.68;100931.91;5049008;28;20011;-78
2022/08/23 01:35:36;;;;;;;;;;;;;;;21.95;30.68;100928.66;5045695;28;20443;-78
2022/08/23 01:38:05;;;;;;;;;;;;;;;21.91;30.58;100934.88;5065859;28;19948;-78
2022/08/23 01:40:34;;;;;;;;;;;;;;;21.87;31.05;100931.59;5045190;28;19925;-78
2022/08/23 01:43:04;;;;;;;;;;;;;;;21.84;30.43;100930.13;5055877;28;19925;-78
2022/08/23 01:45:33;;;;;;;;;;;;;;;21.81;30.50;100930.50;5051978;28;19924;-77
2022/08/23 01:48:02;;;;;;;;;;;;;;;21.78;31.02;100932.84;5050331;28;20304;-78
2022/08/23 01:50:31;;;;;;;;;;;;;;;21.75;31.37;100936.06;5049029;28;19928;-78
2022/08/23 01:52:59;;;;;;;;;;;;;;;21.72;30.96;100942.03;5041587;28;20618;-78
2022/08/23 01:55:29;;;;;;;;;;;;;;;21.69;31.22;100946.06;5056908;28;19971;-78
2022/08/23 01:57:58;;;;;;;;;;;;;;;21.66;31.47;100940.94;5043798;28;19928;-78
2022/08/23 02:00:31;;;;;;;;;;;;;;;21.62;31.34;100947.97;5048083;28;20020;-78
2022/08/23 02:03:00;;;;;;;;;;;;;;;21.57;31.57;100946.88;5061545;28;19929;-78
2022/08/23 02:05:29;;;;;;;;;;;;;;;21.53;31.22;100947.25;5049486;28;19932;-78
2022/08/23 02:08:59;;;;;;;;;;;;;;;21.50;31.22;100941.25;5060595;28;19929;-78
2022/08/23 02:10:47;;;;;;;;;;;;;;;21.46;31.37;100942.72;5040625;28;19929;-78
2022/08/23 02:13:15;;;;;;;;;;;;;;;21.44;31.41;100944.84;5056016;28;19924;-78
2022/08/23 02:15:46;;;;;;;;;;;;;;;21.39;31.51;100942.69;5047948;28;19925;-78
2022/08/23 02:18:14;;;;;;;;;;;;;;;21.38;31.91;100954.00;5049502;28;20480;-78
2022/08/23 02:20:44;;;;;;;;;;;;;;;21.36;31.37;100956.13;5045549;28;19935;-78
2022/08/23 02:23:13;;;;;;;;;;;;;;;21.32;31.36;100952.91;5057107;28;20416;-78
2022/08/23 02:25:41;;;;;;;;;;;;;;;21.31;31.24;100939.19;5048766;28;19994;-78
2022/08/23 02:28:10;;;;;;;;;;;;;;;21.28;31.70;100943.22;5046561;28;19928;-78
2022/08/23 02:30:38;;;;;;;;;;;;;;;21.27;32.30;100951.81;5045745;28;19944;-78
2022/08/23 02:33:11;;;;;;;;;;;;;;;21.25;32.05;100951.09;5037703;28;19931;-79
2022/08/23 02:35:42;;;;;;;;;;;;;;;21.23;31.39;100956.00;5069033;28;19940;-77
2022/08/23 02:38:11;;;;;;;;;;;;;;;21.21;31.45;100960.91;5065342;28;19935;-78
2022/08/23 02:40:41;;;;;;;;;;;;;;;21.19;31.49;100963.88;5045807;28;19925;-78
2022/08/23 02:43:09;;;;;;;;;;;;;;;21.18;31.48;100962.19;5048721;28;19932;-78
2022/08/23 02:45:38;;;;;;;;;;;;;;;21.17;31.99;100959.59;5046398;28;20284;-78
2022/08/23 02:48:07;;;;;;;;;;;;;;;21.14;31.83;100958.94;5047342;28;20307;-78
2022/08/23 02:50:45;;;;;;;;;;;;;;;21.11;32.04;100962.13;5066130;28;19925;-78
2022/08/23 02:53:13;;;;;;;;;;;;;;;21.08;31.87;100962.53;5052670;28;19952;-78
2022/08/23 02:55:44;;;;;;;;;;;;;;;21.08;31.89;100961.69;5077067;28;19935;-77
2022/08/23 02:58:12;;;;;;;;;;;;;;;21.04;32.09;100968.69;5047734;28;19949;-78
2022/08/23 03:00:41;;;;;;;;;;;;;;;21.01;31.99;100966.31;5043666;28;19929;-78
2022/08/23 03:03:09;;;;;;;;;;;;;;;20.97;31.73;100963.06;5036607;28;19928;-78
2022/08/23 03:05:39;;;;;;;;;;;;;;;20.94;31.95;100959.84;5042672;28;19979;-77
2022/08/23 03:08:08;;;;;;;;;;;;;;;20.90;31.66;100966.84;5050593;28;19925;-77
2022/08/23 03:10:45;;;;;;;;;;;;;;;20.87;31.81;100965.31;5048361;28;19960;-77
2022/08/23 03:13:13;;;;;;;;;;;;;;;20.85;31.64;100963.81;5064213;28;20414;-78
2022/08/23 03:15:42;;;;;;;;;;;;;;;20.83;32.13;100965.94;5059416;28;20351;-77
2022/08/23 03:18:11;;;;;;;;;;;;;;;20.82;32.12;100964.22;5043905;28;19925;-78
2022/08/23 03:20:40;;;;;;;;;;;;;;;20.79;32.41;100965.47;5046780;28;19960;-78
2022/08/23 03:23:11;;;;;;;;;;;;;;;20.77;31.76;100965.69;5044027;28;20011;-78
2022/08/23 03:25:40;;;;;;;;;;;;;;;20.76;31.95;100971.44;5066346;28;20291;-77
2022/08/23 03:28:16;;;;;;;;;;;;;;;20.74;32.28;100976.34;5053898;28;19925;-78
2022/08/23 03:30:45;;;;;;;;;;;;;;;20.72;32.21;100975.66;5047101;28;19932;-76
2022/08/23 03:33:14;;;;;;;;;;;;;;;20.71;32.32;100976.72;5044666;28;19936;-77
2022/08/23 03:35:44;;;;;;;;;;;;;;;20.69;32.39;100982.50;5060540;28;19925;-76
2022/08/23 03:38:15;;;;;;;;;;;;;;;20.67;32.69;100976.28;5066852;28;19979;-77
2022/08/23 03:40:43;;;;;;;;;;;;;;;20.66;32.25;100982.03;5060855;28;20035;-77
2022/08/23 03:43:13;;;;;;;;;;;;;;;20.64;32.11;100978.56;5044788;28;19936;-77
2022/08/23 03:45:41;;;;;;;;;;;;;;;20.61;32.63;100985.38;5048995;28;19967;-77
2022/08/23 03:48:10;;;;;;;;;;;;;;;20.61;32.24;100987.31;5056851;28;19924;-77
2022/08/23 03:50:38;;;;;;;;;;;;;;;20.57;32.71;100978.47;5053360;28;19924;-77
2022/08/23 03:53:06;;;;;;;;;;;;;;;20.56;32.18;100990.66;5042567;28;19933;-77
2022/08/23 03:55:37;;;;;;;;;;;;;;;20.53;32.54;100992.97;5060930;28;19992;-77
2022/08/23 03:58:13;;;;;;;;;;;;;;;20.51;32.43;100995.09;5064992;28;19933;-78
2022/08/23 04:00:41;;;;;;;;;;;;;;;20.48;32.35;100995.47;5050528;28;20018;-77
2022/08/23 04:03:10;;;;;;;;;;;;;;;20.46;32.83;100997.56;5046540;28;19931;-77
2022/08/23 04:05:54;;;;;;;;;;;;;;;20.43;32.72;101001.63;5042522;28;19925;-77
2022/08/23 04:08:24;;;;;;;;;;;;;;;20.40;32.41;101015.91;5064514;28;19933;-77
2022/08/23 04:11:01;;;;;;;;;;;;;;;20.37;32.26;101017.16;5067743;28;19998;-77
2022/08/23 04:13:30;;;;;;;;;;;;;;;20.35;32.40;101018.41;5043840;28;19948;-77
2022/08/23 04:16:02;;;;;;;;;;;;;;;20.31;32.65;101017.94;5043704;28;20310;-77
2022/08/23 04:18:33;;;;;;;;;;;;;;;20.28;32.47;101029.44;5067904;28;20390;-77
2022/08/23 04:21:04;;;;;;;;;;;;;;;20.26;32.60;101027.94;5050897;28;19925;-77
2022/08/23 04:23:33;;;;;;;;;;;;;;;20.23;32.84;101026.38;5047620;28;19928;-77
2022/08/23 04:26:04;;;;;;;;;;;;;;;20.22;32.78;101034.91;5052333;28;19929;-77
2022/08/23 04:28:37;;;;;;;;;;;;;;;20.20;32.49;101031.50;5054612;28;19975;-77
2022/08/23 04:31:05;;;;;;;;;;;;;;;20.19;32.77;101035.31;5051092;28;19925;-77
2022/08/23 04:33:34;;;;;;;;;;;;;;;20.18;32.72;101036.38;5049654;28;20024;-77
2022/08/23 04:36:09;;;;;;;;;;;;;;;20.16;32.50;101039.34;5065566;28;19925;-77
2022/08/23 04:38:37;;;;;;;;;;;;;;;20.15;33.17;101040.38;5064299;28;19935;-77
2022/08/23 04:43:56;;;;;;;;;;;;;;;20.11;32.86;101043.75;5064544;28;20360;-77
2022/08/23 04:46:26;;;;;;;;;;;;;;;20.09;33.08;101057.84;5057400;28;20340;-79
2022/08/23 04:48:56;;;;;;;;;;;;;;;20.06;33.56;101049.88;5060044;28;19924;-79
2022/08/23 04:51:24;;;;;;;;;;;;;;;20.05;33.27;101055.63;5049793;28;19952;-79
2022/08/23 04:53:54;;;;;;;;;;;;;;;20.04;33.31;101067.81;5058919;28;20450;-79
2022/08/23 04:56:46;;;;;;;;;;;;;;;20.01;32.87;101064.34;5051556;28;20003;-79
2022/08/23 04:59:21;;;;;;;;;;;;;;;20.00;33.20;101057.06;5045548;28;19948;-78
2022/08/23 05:01:49;;;;;;;;;;;;;;;19.98;33.87;101059.16;5044700;28;20325;-78
2022/08/23 05:04:17;;;;;;;;;;;;;;;19.97;33.52;101064.91;5044817;28;19965;-79
2022/08/23 05:06:46;;;;;;;;;;;;;;;19.96;33.22;101057.63;5056881;28;19929;-79
2022/08/23 05:09:14;;;;;;;;;;;;;;;19.94;33.49;101056.97;5050388;28;19924;-76
2022/08/23 05:11:49;;;;;;;;;;;;;;;19.93;34.09;101069.13;5054128;28;19935;-78
2022/08/23 05:14:18;;;;;;;;;;;;;;;19.92;33.55;101072.97;5046777;28;19925;-77
2022/08/23 05:16:46;;;;;;;;;;;;;;;19.91;33.32;101074.00;5045615;28;19978;-78
2022/08/23 05:19:14;;;;;;;;;;;;;;;19.90;33.82;101075.88;5048990;28;19932;-78
2022/08/23 05:21:44;;;;;;;;;;;;;;;19.87;33.94;101076.25;5047273;28;19925;-78
2022/08/23 05:24:13;;;;;;;;;;;;;;;19.87;33.99;101079.03;5053335;28;19929;-78
2022/08/23 05:26:44;;;;;;;;;;;;;;;19.87;33.58;101080.97;5062575;28;19932;-77
2022/08/23 05:29:14;;;;;;;;;;;;;;;19.87;33.51;101078.22;5044168;28;19933;-77
2022/08/23 05:31:49;;;;;;;;;;;;;;;19.86;33.44;101088.44;5045253;28;20020;-77
2022/08/23 05:34:21;;;;;;;;;;;;;;;19.88;33.57;101091.00;5045114;28;20584;-78
2022/08/23 05:36:57;;;;;;;;;;;;;;;19.86;33.87;101088.44;5050602;28;19932;-78
2022/08/23 05:39:34;;;;;;;;;;;;;;;19.88;33.54;101096.56;5046796;28;19925;-78
2022/08/23 05:42:10;;;;;;;;;;;;;;;19.89;33.78;101087.19;5042122;28;19932;-78
2022/08/23 05:44:40;;;;;;;;;;;;;;;19.89;34.01;101088.06;5044515;28;19925;-78
2022/08/23 05:47:12;;;;;;;;;;;;;;;19.90;34.38;101089.78;5046364;28;19925;-77
2022/08/23 05:50:01;;;;;;;;;;;;;;;19.92;33.78;101100.75;5064196;28;19955;-78
2022/08/23 05:52:33;;;;;;;;;;;;;;;19.92;33.64;101095.19;5064880;28;19929;-78
2022/08/23 05:55:01;;;;;;;;;;;;;;;19.93;34.15;101103.34;5045486;28;20312;-78
2022/08/23 05:57:41;;;;;;;;;;;;;;;19.95;34.04;101103.16;5050933;28;20019;-78
2022/08/23 06:00:13;;;;;;;;;;;;;;;19.97;34.10;101104.66;5045520;28;20288;-78
2022/08/23 06:02:52;;;;;;;;;;;;;;;20.00;33.53;101112.63;5058949;28;20031;-79
2022/08/23 06:05:21;;;;;;;;;;;;;;;20.03;33.68;101108.63;5047997;28;20007;-79
2022/08/23 06:07:51;;;;;;;;;;;;;;;20.06;34.30;101111.00;5061986;28;20399;-78
2022/08/23 06:10:22;;;;;;;;;;;;;;;20.11;33.61;101113.22;5048547;28;19925;-78
2022/08/23 06:13:04;;;;;;;;;;;;;;;20.14;33.88;101113.69;5047920;28;19924;-79
2022/08/23 06:15:34;;;;;;;;;;;;;;;20.18;33.86;101117.81;5060776;28;19929;-78
2022/08/23 06:18:04;;;;;;;;;;;;;;;20.22;34.13;101129.41;5059092;28;20402;-78
2022/08/23 06:20:35;;;;;;;;;;;;;;;20.26;33.60;101123.28;5044038;28;19924;-80
2022/08/23 06:23:06;;;;;;;;;;;;;;;20.32;33.92;101122.50;5053312;28;19933;-79
2022/08/23 06:25:36;;;;;;;;;;;;;;;20.37;33.73;101119.13;5046921;28;20290;-79
2022/08/23 06:28:12;;;;;;;;;;;;;;;20.43;34.00;101118.38;5056617;28;19925;-80
2022/08/23 06:30:44;;;;;;;;;;;;;;;20.48;33.68;101120.56;5060690;28;19925;-79
2022/08/23 06:33:33;;;;;;;;;;;;;;;20.55;33.86;101124.31;5049279;28;19925;-81
2022/08/23 06:36:37;;;;;;;;;;;;;;;20.62;33.58;101119.72;5049333;28;19964;-81
2022/08/23 06:39:13;;;;;;;;;;;;;;;20.70;34.01;101125.16;5037272;28;20007;-81
2022/08/23 06:41:59;;;;;;;;;;;;;;;20.78;33.65;101131.50;5063713;28;19978;-81
2022/08/23 06:44:30;;;;;;;;;;;;;;;20.86;33.89;101133.28;5047354;28;19936;-81
2022/08/23 06:47:16;;;;;;;;;;;;;;;20.94;34.01;101133.22;5055032;28;19925;-80
2022/08/23 06:49:48;;;;;;;;;;;;;;;21.05;33.42;101142.94;5045314;28;19925;-80
2022/08/23 06:52:46;;;;;;;;;;;;;;;21.16;33.60;101134.09;5045696;28;21659;-83
2022/08/23 06:55:44;;;;;;;;;;;;;;;21.29;33.57;101136.16;5063501;28;19929;-80
2022/08/23 06:58:26;;;;;;;;;;;;;;;21.45;33.88;101130.34;5057504;28;19932;-71
2022/08/23 07:01:10;;;;;;;;;;;;;;;21.59;33.58;101129.44;5050101;28;19932;-72
2022/08/23 07:04:08;;;;;;;;;;;;;;;21.81;33.71;101138.59;5054762;28;19929;-72
2022/08/23 07:06:51;;;;;;;;;;;;;;;22.01;33.61;101134.09;5048940;28;20012;-72
2022/08/23 07:09:20;;;;;;;;;;;;;;;22.19;33.40;101139.13;5041405;28;19932;-71
2022/08/23 07:11:48;;;;;;;;;;;;;;;22.38;33.39;101141.19;5065569;28;19940;-72
2022/08/23 07:14:18;;;;;;;;;;;;;;;22.54;32.73;101140.88;5053977;28;19974;-72
2022/08/23 07:16:50;;;;;;;;;;;;;;;22.72;33.02;101142.25;5050779;28;19931;-72
2022/08/23 07:19:22;;;;;;;;;;;;;;;22.88;32.89;101145.56;5068280;28;19925;-72
2022/08/23 07:21:56;;;;;;;;;;;;;;;23.04;32.53;101147.13;5061336;28;19928;-72
2022/08/23 07:24:25;;;;;;;;;;;;;;;23.19;32.54;101152.56;5043166;28;20273;-71
2022/08/23 07:27:05;;;;;;;;;;;;;;;23.35;32.14;101149.38;5044586;28;19925;-72
2022/08/23 07:29:35;;;;;;;;;;;;;;;23.49;32.13;101150.28;5072190;28;20015;-72
2022/08/23 07:32:04;;;;;;;;;;;;;;;23.63;32.25;101152.00;5049769;28;19960;-72
2022/08/23 07:34:35;;;;;;;;;;;;;;;23.77;32.07;101153.75;5069484;28;19931;-73
2022/08/23 07:37:05;;;;;;;;;;;;;;;23.90;32.04;101144.53;5065303;28;19925;-72
2022/08/23 07:39:43;;;;;;;;;;;;;;;24.03;31.78;101152.91;5050206;28;20384;-72
2022/08/23 07:42:11;;;;;;;;;;;;;;;24.15;31.97;101145.59;5062505;28;19929;-72
2022/08/23 07:44:53;;;;;;;;;;;;;;;24.30;31.69;101149.00;5063521;28;20264;-72
2022/08/23 07:47:23;;;;;;;;;;;;;;;24.43;31.64;101160.19;5057406;28;19969;-71
2022/08/23 07:49:55;;;;;;;;;;;;;;;24.57;31.71;101158.19;5058397;28;19932;-72
2022/08/23 07:52:24;;;;;;;;;;;;;;;24.72;31.57;101164.44;5055436;28;20366;-73
2022/08/23 07:54:52;;;;;;;;;;;;;;;24.85;31.61;101161.56;5050968;28;20341;-73
2022/08/23 07:57:43;;;;;;;;;;;;;;;25.03;31.43;101172.06;5056129;28;19960;-72
2022/08/23 08:00:29;;;;;;;;;;;;;;;25.19;31.00;101177.16;5048104;28;19925;-71
2022/08/23 08:03:14;;;;;;;;;;;;;;;25.35;31.00;101175.78;5051274;28;19928;-72
2022/08/23 08:06:07;;;;;;;;;;;;;;;25.49;30.89;101162.53;5043454;28;19925;-83
2022/08/23 08:08:35;;;;;;;;;;;;;;;25.65;30.73;101167.63;5052330;28;19924;-83
2022/08/23 08:11:05;;;;;;;;;;;;;;;25.79;30.54;101168.41;5071411;28;19940;-82
2022/08/23 08:13:34;;;;;;;;;;;;;;;25.92;30.72;101160.75;5050765;28;19929;-82
2022/08/23 08:16:04;;;;;;;;;;;;;;;26.07;30.62;101167.97;5051385;28;19932;-82
2022/08/23 08:18:35;;;;;;;;;;;;;;;26.23;30.57;101173.00;5044556;28;19925;-83
2022/08/23 08:21:23;;;;;;;;;;;;;;;26.38;30.19;101160.31;5049968;28;19939;-83
2022/08/23 08:24:14;;;;;;;;;;;;;;;26.54;30.16;101160.84;5052381;28;19925;-83
2022/08/23 08:26:46;;;;;;;;;;;;;;;26.69;30.15;101164.13;5040538;28;19940;-83
2022/08/23 08:29:15;;;;;;;;;;;;;;;26.83;29.94;101167.63;5051313;28;19932;-84
2022/08/23 08:31:46;;;;;;;;;;;;;;;26.95;29.90;101160.16;5066507;28;19925;-82
2022/08/23 08:34:21;;;;;;;;;;;;;;;27.08;29.50;101163.63;5064865;28;19925;-82
2022/08/23 08:36:52;;;;;;;;;;;;;;;27.22;29.54;101171.91;5053603;28;20471;-82
2022/08/23 08:39:24;;;;;;;;;;;;;;;27.32;29.42;101167.44;5052799;28;19925;-84
2022/08/23 08:42:00;;;;;;;;;;;;;;;27.46;29.11;101173.72;5052945;28;19932;-84
2022/08/23 08:44:38;;;;;;;;;;;;;;;27.59;29.30;101169.88;5052276;28;19947;-84
2022/08/23 08:47:11;;;;;;;;;;;;;;;27.70;28.96;101169.91;5070008;28;19928;-84
2022/08/23 08:49:42;;;;;;;;;;;;;;;27.83;28.82;101168.84;5052131;28;20304;-84
2022/08/23 08:52:15;;;;;;;;;;;;;;;27.94;28.82;101172.78;5052867;28;20595;-84
2022/08/23 08:54:44;;;;;;;;;;;;;;;28.04;28.44;101178.66;5052195;28;20261;-84
2022/08/23 08:57:18;;;;;;;;;;;;;;;28.15;28.57;101169.38;5058196;28;20016;-84
2022/08/23 08:59:59;;;;;;;;;;;;;;;28.26;28.34;101173.34;5049628;28;20011;-84
2022/08/23 09:02:30;;;;;;;;;;;;;;;28.37;28.08;101183.72;5032671;28;19931;-82
2022/08/23 09:05:07;;;;;;;;;;;;;;;28.47;27.86;101181.16;5064238;28;19925;-82
2022/08/23 09:07:43;;;;;;;;;;;;;;;28.56;27.93;101174.06;5052893;28;19963;-80
2022/08/23 09:10:20;;;;;;;;;;;;;;;28.65;27.95;101177.34;5051406;28;19931;-82
2022/08/23 09:13:10;;;;;;;;;;;;;;;28.77;27.57;101175.44;5051334;28;19925;-81
2022/08/23 09:15:41;;;;;;;;;;;;;;;28.85;27.71;101184.31;5048926;28;19975;-81
2022/08/23 09:18:11;;;;;;;;;;;;;;;28.93;27.07;101175.47;5048437;28;19928;-81
2022/08/23 09:20:41;;;;;;;;;;;;;;;29.01;27.15;101170.59;5051379;28;19931;-81
2022/08/23 09:23:15;;;;;;;;;;;;;;;29.08;26.73;101177.78;5067484;28;19932;-81
2022/08/23 09:25:50;;;;;;;;;;;;;;;29.15;26.77;101181.31;5054505;28;20376;-82
2022/08/23 09:28:19;;;;;;;;;;;;;;;29.20;26.81;101175.78;5050262;28;19925;-83
2022/08/23 09:30:50;;;;;;;;;;;;;;;29.26;26.87;101177.63;5068477;28;20398;-83
2022/08/23 09:33:21;;;;;;;;;;;;;;;29.30;26.71;101175.16;5063686;28;19963;-84
2022/08/23 09:36:06;;;;;;;;;;;;;;;29.34;26.22;101170.75;5068231;28;19956;-83
2022/08/23 09:38:38;;;;;;;;;;;;;;;29.38;26.42;101174.75;5052414;28;19936;-83
2022/08/23 09:41:19;;;;;;;;;;;;;;;29.44;26.67;101176.56;5068776;28;19978;-83
2022/08/23 09:43:51;;;;;;;;;;;;;;;29.51;26.23;101170.78;5050969;28;19928;-83
2022/08/23 09:46:27;;;;;;;;;;;;;;;29.57;26.51;101175.41;5051658;28;19925;-82
2022/08/23 09:48:57;;;;;;;;;;;;;;;29.63;26.53;101174.38;5050620;28;19929;-83
2022/08/23 09:51:33;;;;;;;;;;;;;;;29.70;26.46;101172.25;5040926;28;19925;-83
2022/08/23 09:54:07;;;;;;;;;;;;;;;29.79;26.44;101170.78;5065418;28;19925;-83
2022/08/23 09:56:37;;;;;;;;;;;;;;;29.87;26.33;101169.50;5045440;28;19991;-82
2022/08/23 09:59:21;;;;;;;;;;;;;;;29.95;26.25;101160.59;5059854;28;20261;-83
2022/08/23 10:02:00;;;;;;;;;;;;;;;30.05;26.17;101155.13;5046415;28;20383;-83
2022/08/23 10:04:38;;;;;;;;;;;;;;;30.14;25.84;101158.38;5058777;28;19957;-83
2022/08/23 10:07:21;;;;;;;;;;;;;;;30.23;25.50;101162.53;5061790;28;19980;-82
2022/08/23 10:09:51;;;;;;;;;;;;;;;30.33;25.29;101165.50;5065407;28;20011;-83
2022/08/23 10:12:19;;;;;;;;;;;;;;;30.41;25.61;101162.25;5061200;28;20711;-83
2022/08/23 10:14:49;;;;;;;;;;;;;;;30.49;25.59;101161.81;5050513;28;20025;-83
2022/08/23 10:17:26;;;;;;;;;;;;;;;30.56;25.47;101154.00;5046482;28;19932;-83
2022/08/23 10:20:00;;;;;;;;;;;;;;;30.64;25.05;101163.97;5050246;28;19947;-82
2022/08/23 10:22:39;;;;;;;;;;;;;;;30.72;25.16;101157.91;5050938;28;19931;-82
2022/08/23 10:25:34;;;;;;;;;;;;;;;30.83;25.17;101159.75;5042015;28;20043;-83
2022/08/23 10:31:12;;;;;;;;;;;;;;;30.99;25.15;101149.53;5050709;28;19931;-82
2022/08/23 10:33:44;;;;;;;;;;;;;;;31.08;24.63;101148.75;5067402;28;20019;-82
2022/08/23 10:36:14;;;;;;;;;;;;;;;31.16;24.44;101151.13;5063186;28;19939;-82
2022/08/23 10:38:46;;;;;;;;;;;;;;;31.24;24.56;101154.66;5060154;28;19971;-82
2022/08/23 10:41:32;;;;;;;;;;;;;;;31.32;24.85;101151.34;5041302;28;20028;-82
2022/08/23 10:44:08;;;;;;;;;;;;;;;31.40;24.68;101154.56;5052782;28;19940;-82
2022/08/23 10:46:41;;;;;;;;;;;;;;;31.47;23.92;101149.53;5046513;28;19932;-81
2022/08/23 10:49:11;;;;;;;;;;;;;;;31.54;23.76;101153.00;5063552;28;19925;-81
2022/08/23 10:51:42;;;;;;;;;;;;;;;31.63;24.26;101149.69;5068416;28;19925;-81
2022/08/23 10:54:14;;;;;;;;;;;;;;;31.70;24.28;101147.53;5046692;28;19933;-82
2022/08/23 10:56:43;;;;;;;;;;;;;;;31.76;24.14;101143.63;5062892;28;20276;-80
2022/08/23 10:59:22;;;;;;;;;;;;;;;31.83;23.39;101135.75;5053416;28;19929;-80
2022/08/23 11:01:59;;;;;;;;;;;;;;;31.89;23.96;101141.22;5042883;28;20287;-82
2022/08/23 11:04:32;;;;;;;;;;;;;;;31.94;23.22;101129.06;5038168;28;19987;-79
2022/08/23 11:07:16;;;;;;;;;;;;;;;32.01;23.81;101134.47;5057287;28;20557;-80
2022/08/23 11:09:50;;;;;;;;;;;;;;;32.07;23.56;101130.56;5041408;28;19925;-81
2022/08/23 11:12:26;;;;;;;;;;;;;;;32.11;23.58;101143.91;5047745;28;20028;-81
2022/08/23 11:15:16;;;;;;;;;;;;;;;32.16;22.97;101129.81;5042782;28;19925;-80
2022/08/23 11:18:01;;;;;;;;;;;;;;;32.22;23.29;101136.41;5036635;28;19924;-80
2022/08/23 11:20:48;;;;;;;;;;;;;;;32.26;22.67;101132.72;5045460;28;19931;-80
2022/08/23 11:23:37;;;;;;;;;;;;;;;32.28;22.84;101133.31;5052073;28;20338;-82
2022/08/23 11:26:07;;;;;;;;;;;;;;;32.33;22.86;101132.47;5039592;28;19932;-79
2022/08/23 11:28:40;;;;;;;;;;;;;;;32.34;22.62;101140.72;5044742;28;20350;-79
2022/08/23 11:31:21;;;;;;;;;;;;;;;32.34;22.07;101132.22;5052028;28;19925;-80
2022/08/23 11:33:52;;;;;;;;;;;;;;;32.36;22.18;101131.09;5041147;28;20550;-80
2022/08/23 11:36:22;;;;;;;;;;;;;;;32.36;22.76;101126.28;5059015;28;19979;-81
2022/08/23 11:39:01;;;;;;;;;;;;;;;32.38;22.54;101137.34;5050625;28;21572;-81
2022/08/23 11:41:31;;;;;;;;;;;;;;;32.39;22.45;101127.72;5049815;28;19924;-80
2022/08/23 11:44:17;;;;;;;;;;;;;;;32.39;21.86;101124.91;5054077;28;19924;-81
2022/08/23 11:46:55;;;;;;;;;;;;;;;32.39;21.96;101124.91;5044606;28;19972;-79
2022/08/23 11:49:39;;;;;;;;;;;;;;;32.40;22.42;101120.91;5072310;28;20024;-80
2022/08/23 11:52:16;;;;;;;;;;;;;;;32.42;21.93;101121.50;5049497;28;19979;-81
2022/08/23 11:54:52;;;;;;;;;;;;;;;32.43;22.32;101124.06;5068723;28;20422;-82
2022/08/23 11:57:27;;;;;;;;;;;;;;;32.46;21.75;101120.69;5047309;28;19924;-81
2022/08/23 12:00:06;;;;;;;;;;;;;;;32.50;22.12;101123.81;5050590;28;19929;-81
2022/08/23 12:02:48;;;;;;;;;;;;;;;32.51;21.43;101120.72;5040035;28;20380;-80
2022/08/23 12:05:22;;;;;;;;;;;;;;;32.54;21.67;101123.00;5054134;28;19982;-81
2022/08/23 12:07:54;;;;;;;;;;;;;;;32.57;21.58;101110.25;5053401;28;19928;-81
2022/08/23 12:10:23;;;;;;;;;;;;;;;32.59;21.61;101120.22;5048535;28;19929;-81
2022/08/23 12:13:06;;;;;;;;;;;;;;;32.63;21.47;101121.38;5050957;28;19939;-80
2022/08/23 12:15:57;;;;;;;;;;;;;;;32.67;21.49;101119.69;5053538;28;19928;-79
2022/08/23 12:18:25;;;;;;;;;;;;;;;32.69;20.90;101108.09;5054599;28;19924;-81
2022/08/23 12:20:57;;;;;;;;;;;;;;;32.70;21.56;101104.97;5055606;28;20019;-81
2022/08/23 12:23:27;;;;;;;;;;;;;;;32.71;21.07;101108.66;5047022;28;19925;-80
2022/08/23 12:26:07;;;;;;;;;;;;;;;32.71;21.49;101108.66;5050439;28;19937;-79
2022/08/23 12:28:38;;;;;;;;;;;;;;;32.72;20.81;101108.38;5050226;28;20379;-81
2022/08/23 12:31:14;;;;;;;;;;;;;;;32.70;20.89;101096.47;5068562;28;19932;-80
2022/08/23 12:33:50;;;;;;;;;;;;;;;32.71;20.69;101097.34;5051223;28;20296;-80
2022/08/23 12:36:22;;;;;;;;;;;;;;;32.69;20.90;101097.59;5051925;28;19971;-78
2022/08/23 12:38:56;;;;;;;;;;;;;;;32.71;20.83;101105.84;5052084;28;19933;-79
2022/08/23 12:41:26;;;;;;;;;;;;;;;32.70;21.23;101098.47;5052996;28;19932;-79
2022/08/23 12:43:55;;;;;;;;;;;;;;;32.69;20.69;101103.28;5047338;28;19925;-79
2022/08/23 12:46:31;;;;;;;;;;;;;;;32.70;21.35;101101.28;5053539;28;19925;-81
2022/08/23 12:49:00;;;;;;;;;;;;;;;32.70;21.16;101098.47;5052487;28;19929;-81
2022/08/23 12:51:28;;;;;;;;;;;;;;;32.70;21.12;101104.13;5053517;28;19979;-81
2022/08/23 12:54:11;;;;;;;;;;;;;;;32.69;21.21;101097.59;5053515;28;19928;-81
2022/08/23 12:56:40;;;;;;;;;;;;;;;32.70;21.15;101098.47;5042834;28;19925;-81
2022/08/23 12:59:20;;;;;;;;;;;;;;;32.70;21.12;101104.13;5051561;28;19925;-80
2022/08/23 13:01:48;;;;;;;;;;;;;;;32.70;21.15;101104.97;5041395;28;19932;-81
2022/08/23 13:04:17;;;;;;;;;;;;;;;32.69;20.64;101103.28;5042455;28;19925;-80
2022/08/23 13:06:48;;;;;;;;;;;;;;;32.70;21.04;101106.97;5071664;28;20410;-79
2022/08/23 13:09:22;;;;;;;;;;;;;;;32.70;21.04;101107.81;5049606;28;19928;-80
2022/08/23 13:11:51;;;;;;;;;;;;;;;32.70;21.16;101106.97;5048049;28;19933;-80
2022/08/23 13:14:23;;;;;;;;;;;;;;;32.70;21.08;101109.78;5045964;28;19924;-80
2022/08/23 13:16:51;;;;;;;;;;;;;;;32.70;20.44;101109.78;5051544;28;20392;-79
2022/08/23 13:19:25;;;;;;;;;;;;;;;32.70;20.53;101109.78;5041221;28;19929;-80